createdAt,value
2019-05-13T00:01:28.926Z,101981.06
2019-05-13T00:03:04.097Z,101981.86
2019-05-13T00:04:38.647Z,101981.79
2019-05-13T00:06:13.512Z,101982.35
2019-05-13T00:07:48.118Z,101990.16
2019-05-13T00:09:24.483Z,101993.41
2019-05-13T00:10:59.310Z,101988.94
2019-05-13T00:12:35.524Z,101995.44
2019-05-13T00:14:10.230Z,101994.07
2019-05-13T00:15:45.058Z,101997.14
2019-05-13T00:17:19.640Z,101991.78
2019-05-13T00:18:54.412Z,101996.56
2019-05-13T00:20:29.045Z,101997.78
2019-05-13T00:22:04.091Z,102005.56
2019-05-13T00:23:38.795Z,101998.78
2019-05-13T00:25:14.582Z,102000.28
2019-05-13T00:26:49.394Z,101996.80
2019-05-13T00:28:24.410Z,101999.73
2019-05-13T00:29:58.963Z,102000.56
2019-05-13T00:31:34.046Z,102003.64
2019-05-13T00:33:08.617Z,102003.18
2019-05-13T00:34:44.503Z,102004.41
2019-05-13T00:36:19.832Z,102009.90
2019-05-13T00:37:54.873Z,102007.30
2019-05-13T00:39:29.755Z,102007.27
2019-05-13T00:41:04.530Z,102013.26
2019-05-13T00:42:39.145Z,102017.23
2019-05-13T00:44:14.323Z,102013.27
2019-05-13T00:45:49.343Z,102007.13
2019-05-13T00:47:24.161Z,102005.08
2019-05-13T00:48:58.711Z,102011.20
2019-05-13T00:50:33.847Z,102011.80
2019-05-13T00:52:08.439Z,102007.28
2019-05-13T00:53:44.190Z,102014.68
2019-05-13T00:55:19.022Z,102015.93
2019-05-13T00:56:54.804Z,102009.53
2019-05-13T00:58:29.488Z,102013.74
2019-05-13T01:00:04.739Z,102016.52
2019-05-13T01:01:39.290Z,102013.67
2019-05-13T01:03:14.615Z,102019.95
2019-05-13T01:04:49.474Z,102021.73
2019-05-13T01:06:24.646Z,102028.31
2019-05-13T01:07:59.840Z,102025.69
2019-05-13T01:09:34.967Z,102024.61
2019-05-13T01:11:09.507Z,102025.42
2019-05-13T01:12:44.925Z,102025.02
2019-05-13T01:14:19.497Z,102027.34
2019-05-13T01:15:54.544Z,102028.28
2019-05-13T01:17:29.179Z,102030.08
2019-05-13T01:19:04.290Z,102033.38
2019-05-13T01:20:39.475Z,102028.91
2019-05-13T01:22:14.360Z,102035.31
2019-05-13T01:23:54.226Z,102033.56
2019-05-13T01:25:29.130Z,102039.56
2019-05-13T01:27:04.185Z,102039.59
2019-05-13T01:28:39.503Z,102032.75
2019-05-13T01:30:14.682Z,102041.27
2019-05-13T01:31:49.430Z,102037.92
2019-05-13T01:33:24.467Z,102040.92
2019-05-13T01:34:59.251Z,102040.17
2019-05-13T01:36:34.246Z,102045.12
2019-05-13T01:38:09.163Z,102050.92
2019-05-13T01:39:43.971Z,102048.50
2019-05-13T01:41:18.988Z,102054.79
2019-05-13T01:42:54.185Z,102057.05
2019-05-13T01:44:29.467Z,102061.16
2019-05-13T01:46:04.657Z,102069.14
2019-05-13T01:47:39.839Z,102065.09
2019-05-13T01:49:14.763Z,102065.36
2019-05-13T01:50:49.578Z,102069.10
2019-05-13T01:52:24.181Z,102068.03
2019-05-13T01:53:58.922Z,102067.08
2019-05-13T01:55:34.090Z,102068.04
2019-05-13T01:57:09.220Z,102064.06
2019-05-13T01:58:44.974Z,102071.72
2019-05-13T02:00:20.275Z,102070.83
2019-05-13T02:01:54.838Z,102067.98
2019-05-13T02:03:29.590Z,102071.97
2019-05-13T02:05:04.337Z,102077.75
2019-05-13T02:06:39.188Z,102076.47
2019-05-13T02:08:14.449Z,102075.47
2019-05-13T02:09:49.606Z,102079.51
2019-05-13T02:11:24.722Z,102078.13
2019-05-13T02:12:59.454Z,102080.49
2019-05-13T02:14:34.281Z,102079.84
2019-05-13T02:16:09.361Z,102076.20
2019-05-13T02:17:44.718Z,102080.84
2019-05-13T02:19:20.047Z,102077.36
2019-05-13T02:20:56.065Z,102082.66
2019-05-13T02:22:33.564Z,102092.27
2019-05-13T02:24:07.555Z,102088.52
2019-05-13T02:25:43.605Z,102087.56
2019-05-13T02:27:18.305Z,102083.59
2019-05-13T02:28:54.087Z,102077.05
2019-05-13T02:30:29.114Z,102089.75
2019-05-13T02:32:03.918Z,102089.88
2019-05-13T02:33:38.581Z,102084.83
2019-05-13T02:35:14.199Z,102087.30
2019-05-13T02:36:52.816Z,102089.38
2019-05-13T02:38:30.642Z,102080.56
2019-05-13T02:40:04.648Z,102076.59
2019-05-13T02:41:42.890Z,102078.91
2019-05-13T02:43:15.845Z,102083.31
2019-05-13T02:44:52.974Z,102082.60
2019-05-13T02:46:27.258Z,102081.37
2019-05-13T02:48:03.214Z,102068.92
2019-05-13T02:49:38.267Z,102082.86
2019-05-13T02:51:13.445Z,102082.28
2019-05-13T02:52:48.371Z,102082.51
2019-05-13T02:54:23.472Z,102083.95
2019-05-13T02:55:58.020Z,102083.59
2019-05-13T02:57:33.007Z,102084.61
2019-05-13T02:59:07.791Z,102088.09
2019-05-13T03:00:44.197Z,102089.22
2019-05-13T03:02:19.100Z,102089.15
2019-05-13T03:03:53.860Z,102097.06
2019-05-13T03:05:28.563Z,102096.75
2019-05-13T03:07:03.635Z,102097.65
2019-05-13T03:08:46.213Z,102103.17
2019-05-13T03:10:15.552Z,102100.12
2019-05-13T03:11:53.615Z,102100.34
2019-05-13T03:13:27.039Z,102106.28
2019-05-13T03:15:02.732Z,102107.77
2019-05-13T03:16:55.919Z,102109.91
2019-05-13T03:18:33.442Z,102112.66
2019-05-13T03:20:11.636Z,102108.64
2019-05-13T03:21:43.946Z,102106.81
2019-05-13T03:23:18.568Z,102114.16
2019-05-13T03:24:53.373Z,102123.52
2019-05-13T03:26:28.235Z,102118.49
2019-05-13T03:28:03.604Z,102125.55
2019-05-13T03:29:38.308Z,102119.66
2019-05-13T03:31:16.846Z,102127.31
2019-05-13T03:32:55.256Z,102123.35
2019-05-13T03:34:27.295Z,102119.76
2019-05-13T03:36:06.715Z,102128.86
2019-05-13T03:37:42.330Z,102132.77
2019-05-13T03:39:17.084Z,102122.45
2019-05-13T03:40:54.874Z,102124.53
2019-05-13T03:42:33.545Z,102130.57
2019-05-13T03:44:13.592Z,102124.64
2019-05-13T03:45:52.579Z,102132.56
2019-05-13T03:47:28.790Z,102136.48
2019-05-13T03:49:04.377Z,102139.72
2019-05-13T03:50:39.177Z,102139.73
2019-05-13T03:52:13.857Z,102140.87
2019-05-13T03:53:53.212Z,102148.31
2019-05-13T03:55:26.738Z,102140.16
2019-05-13T03:57:03.523Z,102142.72
2019-05-13T03:58:38.372Z,102144.44
2019-05-13T04:00:13.550Z,102146.05
2019-05-13T04:01:48.448Z,102148.73
2019-05-13T04:03:23.271Z,102150.33
2019-05-13T04:04:59.113Z,102147.81
2019-05-13T04:06:34.826Z,102149.88
2019-05-13T04:08:12.976Z,102145.86
2019-05-13T04:09:46.039Z,102144.52
2019-05-13T04:11:22.663Z,102154.31
2019-05-13T04:12:57.643Z,102149.16
2019-05-13T04:14:33.680Z,102146.26
2019-05-13T04:16:08.682Z,102150.17
2019-05-13T04:17:43.253Z,102150.00
2019-05-13T04:19:18.354Z,102146.74
2019-05-13T04:20:53.388Z,102152.44
2019-05-13T04:22:28.547Z,102156.98
2019-05-13T04:24:04.204Z,102157.63
2019-05-13T04:25:43.619Z,102162.54
2019-05-13T04:27:15.861Z,102161.46
2019-05-13T04:28:52.612Z,102163.17
2019-05-13T04:30:27.555Z,102166.03
2019-05-13T04:32:02.611Z,102165.86
2019-05-13T04:33:37.615Z,102166.02
2019-05-13T04:35:12.596Z,102166.39
2019-05-13T04:36:47.382Z,102167.30
2019-05-13T04:38:23.011Z,102165.70
2019-05-13T04:39:57.840Z,102158.86
2019-05-13T04:41:33.356Z,102165.41
2019-05-13T04:43:08.274Z,102162.03
2019-05-13T04:44:43.439Z,102167.22
2019-05-13T04:46:18.134Z,102164.95
2019-05-13T04:47:53.269Z,102170.22
2019-05-13T04:49:28.311Z,102169.31
2019-05-13T04:51:03.457Z,102168.73
2019-05-13T04:52:38.122Z,102169.92
2019-05-13T04:54:13.462Z,102173.47
2019-05-13T04:55:48.011Z,102165.40
2019-05-13T04:57:22.917Z,102173.17
2019-05-13T04:58:57.571Z,102174.36
2019-05-13T05:01:08.966Z,102177.91
2019-05-13T05:02:56.469Z,102174.86
2019-05-13T05:04:44.880Z,102175.32
2019-05-13T05:06:42.560Z,102177.70
2019-05-13T05:08:53.800Z,102181.09
2019-05-13T05:11:02.516Z,102171.23
2019-05-13T05:13:02.941Z,102182.36
2019-05-13T05:15:03.102Z,102179.20
2019-05-13T05:17:03.261Z,102177.73
2019-05-13T05:19:08.891Z,102177.22
2019-05-13T05:20:55.500Z,102182.37
2019-05-13T05:22:39.439Z,102171.76
2019-05-13T05:24:52.057Z,102175.51
2019-05-13T05:26:52.199Z,102183.33
2019-05-13T05:29:05.575Z,102185.80
2019-05-13T05:31:06.321Z,102186.52
2019-05-13T05:32:53.053Z,102192.78
2019-05-13T05:35:01.239Z,102189.22
2019-05-13T05:37:02.124Z,102191.81
2019-05-13T05:38:51.614Z,102180.03
2019-05-13T05:40:32.348Z,102175.02
2019-05-13T05:42:07.785Z,102174.16
2019-05-13T05:43:45.431Z,102170.56
2019-05-13T05:45:22.100Z,102171.30
2019-05-13T05:47:02.584Z,102179.07
2019-05-13T05:48:41.989Z,102179.37
2019-05-13T05:50:16.513Z,102186.44
2019-05-13T05:51:54.078Z,102175.34
2019-05-13T05:53:31.903Z,102179.28
2019-05-13T05:55:07.479Z,102175.75
2019-05-13T05:56:42.316Z,102171.91
2019-05-13T05:58:18.774Z,102173.59
2019-05-13T05:59:56.073Z,102170.98
2019-05-13T06:01:33.203Z,102176.44
2019-05-13T06:03:07.580Z,102170.13
2019-05-13T06:04:43.338Z,102168.93
2019-05-13T06:06:22.747Z,102169.01
2019-05-13T06:07:57.503Z,102173.33
2019-05-13T06:09:32.476Z,102169.65
2019-05-13T06:11:07.875Z,102170.28
2019-05-13T06:12:43.282Z,102172.70
2019-05-13T06:14:18.896Z,102169.74
2019-05-13T06:15:53.719Z,102177.80
2019-05-13T06:17:28.747Z,102170.27
2019-05-13T06:19:03.724Z,102179.37
2019-05-13T06:20:38.546Z,102176.83
2019-05-13T06:22:13.213Z,102177.55
2019-05-13T06:23:48.030Z,102174.73
2019-05-13T06:25:23.562Z,102176.56
2019-05-13T06:27:01.290Z,102176.36
2019-05-13T06:28:35.276Z,102166.61
2019-05-13T06:30:12.558Z,102183.30
2019-05-13T06:31:46.744Z,102186.06
2019-05-13T06:33:21.686Z,102187.52
2019-05-13T06:34:56.436Z,102172.67
2019-05-13T06:36:31.980Z,102173.10
2019-05-13T06:38:07.310Z,102174.64
2019-05-13T06:39:42.753Z,102171.54
2019-05-13T06:41:17.967Z,102176.97
2019-05-13T06:42:53.149Z,102177.05
2019-05-13T06:44:28.340Z,102181.45
2019-05-13T06:46:03.579Z,102186.79
2019-05-13T06:47:41.176Z,102183.83
2019-05-13T06:49:15.621Z,102191.37
2019-05-13T06:50:52.135Z,102187.91
2019-05-13T06:52:27.418Z,102188.66
2019-05-13T06:54:02.683Z,102187.27
2019-05-13T06:55:38.116Z,102191.47
2019-05-13T06:57:13.694Z,102186.03
2019-05-13T06:58:51.814Z,102198.06
2019-05-13T07:00:26.680Z,102194.31
2019-05-13T07:02:02.400Z,102190.81
2019-05-13T07:03:37.741Z,102182.60
2019-05-13T07:05:13.561Z,102187.92
2019-05-13T07:06:51.475Z,102192.27
2019-05-13T07:08:25.650Z,102190.58
2019-05-13T07:10:02.447Z,102187.18
2019-05-13T07:11:38.042Z,102177.20
2019-05-13T07:13:13.237Z,102185.02
2019-05-13T07:14:48.501Z,102188.63
2019-05-13T07:16:23.756Z,102189.37
2019-05-13T07:17:58.929Z,102191.15
2019-05-13T07:19:34.396Z,102192.77
2019-05-13T07:21:11.862Z,102196.13
2019-05-13T07:22:46.742Z,102191.06
2019-05-13T07:24:22.669Z,102189.65
2019-05-13T07:25:57.835Z,102190.81
2019-05-13T07:27:33.041Z,102191.03
2019-05-13T07:29:08.613Z,102183.98
2019-05-13T07:30:46.462Z,102186.25
2019-05-13T07:32:22.212Z,102188.96
2019-05-13T07:33:57.481Z,102187.25
2019-05-13T07:35:37.829Z,102192.20
2019-05-13T07:37:11.362Z,102184.60
2019-05-13T07:38:47.342Z,102186.36
2019-05-13T07:40:22.518Z,102180.06
2019-05-13T07:41:57.994Z,102182.24
2019-05-13T07:43:33.946Z,102186.08
2019-05-13T07:45:11.484Z,102188.04
2019-05-13T07:46:46.373Z,102188.59
2019-05-13T07:48:27.663Z,102178.67
2019-05-13T07:49:58.786Z,102179.94
2019-05-13T07:51:34.351Z,102179.62
2019-05-13T07:53:12.210Z,102177.45
2019-05-13T07:54:46.407Z,102174.47
2019-05-13T07:56:21.999Z,102183.55
2019-05-13T07:57:57.257Z,102172.02
2019-05-13T07:59:32.497Z,102167.84
2019-05-13T08:01:07.733Z,102167.66
2019-05-13T08:02:43.214Z,102176.30
2019-05-13T08:04:22.721Z,102167.84
2019-05-13T08:05:55.511Z,102170.16
2019-05-13T08:07:31.673Z,102170.01
2019-05-13T08:09:12.543Z,102160.66
2019-05-13T08:10:46.909Z,102171.72
2019-05-13T08:12:22.063Z,102167.25
2019-05-13T08:13:57.483Z,102168.67
2019-05-13T08:15:32.689Z,102174.80
2019-05-13T08:17:07.921Z,102169.10
2019-05-13T08:18:43.873Z,102168.28
2019-05-13T08:20:22.102Z,102175.41
2019-05-13T08:21:56.740Z,102174.02
2019-05-13T08:23:32.514Z,102170.64
2019-05-13T08:25:07.980Z,102166.58
2019-05-13T08:26:47.609Z,102167.19
2019-05-13T08:28:22.394Z,102164.22
2019-05-13T08:29:57.079Z,102169.44
2019-05-13T08:31:32.437Z,102169.52
2019-05-13T08:33:07.773Z,102165.64
2019-05-13T08:34:43.015Z,102165.42
2019-05-13T08:36:18.694Z,102164.88
2019-05-13T08:37:53.855Z,102162.07
2019-05-13T08:39:35.767Z,102166.48
2019-05-13T08:41:09.798Z,102162.14
2019-05-13T08:42:43.086Z,102159.19
2019-05-13T08:44:18.532Z,102157.66
2019-05-13T08:45:55.801Z,102146.39
2019-05-13T08:47:31.402Z,102148.56
2019-05-13T08:49:06.716Z,102155.17
2019-05-13T08:50:42.094Z,102161.50
2019-05-13T08:52:17.155Z,102154.92
2019-05-13T08:53:52.179Z,102154.18
2019-05-13T08:55:26.732Z,102159.80
2019-05-13T08:57:03.028Z,102165.28
2019-05-13T08:58:38.133Z,102144.19
2019-05-13T09:00:15.379Z,102146.20
2019-05-13T09:01:51.950Z,102148.92
2019-05-13T09:03:26.898Z,102141.89
2019-05-13T09:05:02.318Z,102132.79
2019-05-13T09:06:37.972Z,102135.52
2019-05-13T09:08:13.352Z,102144.64
2019-05-13T09:09:48.091Z,102146.13
2019-05-13T09:11:22.978Z,102149.45
2019-05-13T09:12:57.958Z,102138.09
2019-05-13T09:14:32.807Z,102135.98
2019-05-13T09:16:08.501Z,102133.92
2019-05-13T09:17:43.668Z,102130.73
2019-05-13T09:19:18.478Z,102139.98
2019-05-13T09:20:53.026Z,102145.02
2019-05-13T09:22:28.064Z,102155.92
2019-05-13T09:24:02.685Z,102162.91
2019-05-13T09:25:37.555Z,102150.95
2019-05-13T09:27:12.285Z,102148.24
2019-05-13T09:28:47.128Z,102157.41
2019-05-13T09:30:22.332Z,102158.36
2019-05-13T09:31:57.228Z,102151.72
2019-05-13T09:33:32.809Z,102148.45
2019-05-13T09:35:07.823Z,102132.78
2019-05-13T09:36:42.378Z,102140.70
2019-05-13T09:38:17.182Z,102140.84
2019-05-13T09:39:52.194Z,102147.28
2019-05-13T09:41:26.973Z,102159.98
2019-05-13T09:43:02.534Z,102142.24
2019-05-13T09:44:37.708Z,102144.00
2019-05-13T09:46:12.662Z,102144.25
2019-05-13T09:47:47.496Z,102132.30
2019-05-13T09:49:23.682Z,102128.66
2019-05-13T09:50:58.839Z,102136.27
2019-05-13T09:52:33.463Z,102128.70
2019-05-13T09:54:08.233Z,102127.11
2019-05-13T09:55:43.177Z,102123.23
2019-05-13T09:57:18.027Z,102122.70
2019-05-13T09:58:52.833Z,102119.39
2019-05-13T10:00:28.233Z,102125.52
2019-05-13T10:02:03.551Z,102115.98
2019-05-13T10:03:53.158Z,102114.97
2019-05-13T10:05:15.420Z,102142.39
2019-05-13T10:06:50.271Z,102127.12
2019-05-13T10:08:24.826Z,102118.96
2019-05-13T10:10:01.604Z,102116.03
2019-05-13T10:11:36.380Z,102110.83
2019-05-13T10:13:15.403Z,102116.40
2019-05-13T10:14:49.288Z,102117.25
2019-05-13T10:16:24.904Z,102117.26
2019-05-13T10:18:01.809Z,102117.91
2019-05-13T10:19:36.414Z,102104.87
2019-05-13T10:21:11.231Z,102100.39
2019-05-13T10:22:46.116Z,102099.62
2019-05-13T10:24:22.192Z,102092.55
2019-05-13T10:26:03.759Z,102092.16
2019-05-13T10:27:41.326Z,102091.83
2019-05-13T10:29:16.695Z,102095.05
2019-05-13T10:30:53.047Z,102091.22
2019-05-13T10:32:29.487Z,102072.63
2019-05-13T10:34:05.916Z,102091.58
2019-05-13T10:35:44.220Z,102101.61
2019-05-13T10:37:22.066Z,102110.89
2019-05-13T10:38:56.223Z,102115.58
2019-05-13T10:40:32.711Z,102132.65
2019-05-13T10:42:07.735Z,102118.23
2019-05-13T10:44:30.999Z,102111.59
2019-05-13T10:46:06.647Z,102097.47
2019-05-13T10:47:42.442Z,102103.67
2019-05-13T10:49:17.788Z,102108.34
2019-05-13T10:50:53.185Z,102115.81
2019-05-13T10:52:28.457Z,102123.50
2019-05-13T10:54:02.983Z,102129.65
2019-05-13T10:55:38.331Z,102119.55
2019-05-13T10:57:13.616Z,102103.41
2019-05-13T10:58:48.874Z,102100.59
2019-05-13T11:00:37.947Z,102098.06
2019-05-13T11:02:13.639Z,102093.61
2019-05-13T11:03:52.135Z,102081.36
2019-05-13T11:05:26.436Z,102093.11
2019-05-13T11:07:02.893Z,102089.98
2019-05-13T11:08:38.985Z,102087.98
2019-05-13T11:10:14.155Z,102088.61
2019-05-13T11:11:49.162Z,102081.19
2019-05-13T11:13:24.664Z,102068.88
2019-05-13T11:15:02.431Z,102086.72
2019-05-13T11:16:36.716Z,102098.34
2019-05-13T11:18:18.813Z,102092.30
2019-05-13T11:19:49.787Z,102089.49
2019-05-13T11:21:25.581Z,102094.59
2019-05-13T11:23:01.922Z,102098.20
2019-05-13T11:24:36.654Z,102112.16
2019-05-13T11:26:12.873Z,102090.17
2019-05-13T11:27:47.864Z,102084.14
2019-05-13T11:29:22.991Z,102097.05
2019-05-13T11:30:59.856Z,102081.55
2019-05-13T11:32:35.835Z,102095.44
2019-05-13T11:34:11.225Z,102083.66
2019-05-13T11:35:46.644Z,102085.08
2019-05-13T11:37:23.119Z,102070.98
2019-05-13T11:38:58.425Z,102066.96
2019-05-13T11:40:33.850Z,102070.24
2019-05-13T11:42:08.577Z,102065.64
2019-05-13T11:43:43.896Z,102053.84
2019-05-13T11:45:19.168Z,102052.25
2019-05-13T11:46:54.690Z,102044.27
2019-05-13T11:48:32.259Z,102050.85
2019-05-13T11:50:07.696Z,102054.88
2019-05-13T11:51:42.809Z,102034.58
2019-05-13T11:53:37.447Z,102046.20
2019-05-13T11:54:55.161Z,102063.73
2019-05-13T11:56:33.638Z,102061.20
2019-05-13T11:58:07.521Z,102068.34
2019-05-13T11:59:43.252Z,102071.70
2019-05-13T12:01:17.734Z,102083.36
2019-05-13T12:02:54.683Z,102073.82
2019-05-13T12:04:29.446Z,102056.34
2019-05-13T12:06:05.517Z,102073.28
2019-05-13T12:07:42.050Z,102066.65
2019-05-13T12:09:17.625Z,102068.02
2019-05-13T12:10:52.650Z,102065.98
2019-05-13T12:12:33.656Z,102066.06
2019-05-13T12:14:05.037Z,102054.67
2019-05-13T12:15:48.844Z,102062.35
2019-05-13T12:17:16.618Z,102051.61
2019-05-13T12:18:52.871Z,102050.59
2019-05-13T12:20:27.965Z,102048.48
2019-05-13T12:22:03.531Z,102038.71
2019-05-13T12:23:38.123Z,102025.51
2019-05-13T12:25:14.055Z,102017.11
2019-05-13T12:26:48.608Z,102016.14
2019-05-13T12:28:23.609Z,102015.53
2019-05-13T12:29:58.092Z,102009.11
2019-05-13T12:31:33.827Z,102007.62
2019-05-13T12:33:08.384Z,102003.66
2019-05-13T12:34:45.923Z,102008.64
2019-05-13T12:36:23.461Z,102012.18
2019-05-13T12:37:57.421Z,102025.64
2019-05-13T12:39:32.534Z,102030.98
2019-05-13T12:41:07.580Z,102034.95
2019-05-13T12:42:46.863Z,102047.31
2019-05-13T12:44:22.287Z,102031.50
2019-05-13T12:45:55.463Z,102034.52
2019-05-13T12:47:30.562Z,102025.28
2019-05-13T12:49:05.288Z,102036.87
2019-05-13T12:50:43.206Z,102039.91
2019-05-13T12:52:17.092Z,102039.44
2019-05-13T12:53:52.953Z,102041.38
2019-05-13T12:55:27.782Z,102041.20
2019-05-13T12:57:03.673Z,102030.80
2019-05-13T12:58:38.454Z,102026.53
2019-05-13T13:00:13.699Z,102019.50
2019-05-13T13:01:48.521Z,102000.97
2019-05-13T13:03:24.491Z,101987.78
2019-05-13T13:05:13.339Z,101984.56
2019-05-13T13:06:41.580Z,101997.84
2019-05-13T13:08:29.000Z,102003.63
2019-05-13T13:09:53.638Z,102009.95
2019-05-13T13:11:28.680Z,102023.02
2019-05-13T13:13:04.554Z,102030.81
2019-05-13T13:14:39.848Z,102024.81
2019-05-13T13:16:16.466Z,102020.97
2019-05-13T13:17:53.924Z,102026.89
2019-05-13T13:19:28.575Z,102029.06
2019-05-13T13:21:07.390Z,102019.38
2019-05-13T13:22:40.993Z,102017.39
2019-05-13T13:24:16.099Z,102017.57
2019-05-13T13:25:54.210Z,102016.69
2019-05-13T13:27:57.730Z,102003.10
2019-05-13T13:29:05.070Z,101999.03
2019-05-13T13:30:39.586Z,101995.45
2019-05-13T13:32:14.853Z,101997.78
2019-05-13T13:33:53.938Z,101998.06
2019-05-13T13:35:26.219Z,101994.60
2019-05-13T13:37:04.700Z,101985.34
2019-05-13T13:38:37.365Z,101968.59
2019-05-13T13:40:13.052Z,101968.92
2019-05-13T13:41:48.590Z,101978.75
2019-05-13T13:43:25.221Z,101971.69
2019-05-13T13:45:06.239Z,101982.87
2019-05-13T13:46:43.123Z,101991.16
2019-05-13T13:48:13.793Z,101994.06
2019-05-13T13:49:48.542Z,101991.20
2019-05-13T13:51:26.605Z,101995.08
2019-05-13T13:53:00.215Z,102004.09
2019-05-13T13:54:37.282Z,102000.79
2019-05-13T13:56:14.517Z,101999.92
2019-05-13T13:57:48.791Z,102002.77
2019-05-13T13:59:25.035Z,102002.75
2019-05-13T14:01:10.550Z,102001.20
2019-05-13T14:02:37.397Z,101999.18
2019-05-13T14:04:16.544Z,101999.72
2019-05-13T14:05:52.590Z,102010.45
2019-05-13T14:07:34.831Z,101986.67
2019-05-13T14:09:04.317Z,101997.34
2019-05-13T14:10:41.868Z,102003.44
2019-05-13T14:12:16.385Z,102002.18
2019-05-13T14:13:52.166Z,101998.73
2019-05-13T14:15:30.860Z,101995.67
2019-05-13T14:17:04.292Z,101987.34
2019-05-13T14:18:41.721Z,101992.82
2019-05-13T14:20:17.304Z,101991.27
2019-05-13T14:21:52.785Z,101985.47
2019-05-13T14:23:28.638Z,101990.52
2019-05-13T14:25:04.064Z,102000.67
2019-05-13T14:26:39.595Z,101998.78
2019-05-13T14:28:17.486Z,101995.19
2019-05-13T14:29:52.640Z,101999.19
2019-05-13T14:31:27.635Z,101987.23
2019-05-13T14:33:03.194Z,101983.94
2019-05-13T14:34:38.276Z,101977.84
2019-05-13T14:36:13.786Z,101983.52
2019-05-13T14:37:48.582Z,101993.52
2019-05-13T14:39:24.424Z,101980.84
2019-05-13T14:41:01.602Z,101975.30
2019-05-13T14:42:35.953Z,101986.22
2019-05-13T14:44:12.493Z,101982.09
2019-05-13T14:45:47.232Z,101976.80
2019-05-13T14:47:21.914Z,101974.72
2019-05-13T14:48:57.307Z,101972.33
2019-05-13T14:50:32.040Z,101971.16
2019-05-13T14:52:07.598Z,101962.97
2019-05-13T14:53:42.634Z,101960.46
2019-05-13T14:55:18.324Z,101955.02
2019-05-13T14:56:53.151Z,101957.70
2019-05-13T14:58:28.717Z,101949.52
2019-05-13T15:00:03.604Z,101953.47
2019-05-13T15:01:41.364Z,101955.39
2019-05-13T15:03:15.763Z,101953.19
2019-05-13T15:04:52.370Z,101948.93
2019-05-13T15:06:27.330Z,101935.08
2019-05-13T15:08:03.174Z,101937.69
2019-05-13T15:09:37.979Z,101936.64
2019-05-13T15:11:14.000Z,101927.76
2019-05-13T15:12:48.816Z,101925.95
2019-05-13T15:14:24.717Z,101929.81
2019-05-13T15:15:59.505Z,101937.56
2019-05-13T15:17:35.649Z,101934.83
2019-05-13T15:19:11.993Z,101933.05
2019-05-13T15:20:47.795Z,101931.53
2019-05-13T15:22:22.958Z,101937.19
2019-05-13T15:23:58.493Z,101934.44
2019-05-13T15:25:33.360Z,101933.48
2019-05-13T15:27:09.297Z,101927.66
2019-05-13T15:28:44.097Z,101929.73
2019-05-13T15:30:21.852Z,101927.52
2019-05-13T15:31:56.350Z,101930.52
2019-05-13T15:33:32.861Z,101927.07
2019-05-13T15:35:12.545Z,101929.50
2019-05-13T15:36:45.665Z,101924.43
2019-05-13T15:38:20.838Z,101921.53
2019-05-13T15:39:56.375Z,101919.97
2019-05-13T15:41:31.611Z,101922.81
2019-05-13T15:43:07.161Z,101920.91
2019-05-13T15:44:41.953Z,101921.05
2019-05-13T15:46:17.570Z,101917.42
2019-05-13T15:47:52.370Z,101920.88
2019-05-13T15:49:27.901Z,101922.44
2019-05-13T15:51:02.780Z,101920.94
2019-05-13T15:52:38.861Z,101918.42
2019-05-13T15:54:15.571Z,101917.38
2019-05-13T15:55:51.779Z,101926.06
2019-05-13T15:57:26.760Z,101926.70
2019-05-13T15:59:02.934Z,101921.05
2019-05-13T16:00:37.804Z,101918.00
2019-05-13T16:02:13.334Z,101923.05
2019-05-13T16:03:48.210Z,101916.36
2019-05-13T16:05:24.095Z,101915.30
2019-05-13T16:07:01.476Z,101915.56
2019-05-13T16:08:36.510Z,101909.52
2019-05-13T16:10:11.587Z,101922.06
2019-05-13T16:11:47.221Z,101931.50
2019-05-13T16:13:22.408Z,101925.16
2019-05-13T16:14:58.261Z,101924.84
2019-05-13T16:16:33.494Z,101920.50
2019-05-13T16:18:11.145Z,101920.78
2019-05-13T16:19:45.588Z,101917.96
2019-05-13T16:21:21.167Z,101910.31
2019-05-13T16:22:55.575Z,101913.62
2019-05-13T16:24:32.162Z,101915.44
2019-05-13T16:26:06.986Z,101927.42
2019-05-13T16:27:42.114Z,101921.34
2019-05-13T16:29:16.488Z,101924.64
2019-05-13T16:30:51.675Z,101926.20
2019-05-13T16:32:26.487Z,101929.25
2019-05-13T16:34:01.851Z,101923.84
2019-05-13T16:35:36.695Z,101926.06
2019-05-13T16:37:11.979Z,101924.53
2019-05-13T16:38:46.503Z,101928.50
2019-05-13T16:40:22.347Z,101920.59
2019-05-13T16:41:56.770Z,101916.50
2019-05-13T16:43:32.177Z,101919.60
2019-05-13T16:45:06.854Z,101917.42
2019-05-13T16:46:42.610Z,101921.55
2019-05-13T16:48:17.198Z,101918.92
2019-05-13T16:49:52.204Z,101924.81
2019-05-13T16:51:26.671Z,101918.19
2019-05-13T16:53:02.006Z,101910.23
2019-05-13T16:54:36.563Z,101910.09
2019-05-13T16:56:25.699Z,101912.95
2019-05-13T16:57:47.626Z,101921.16
2019-05-13T16:59:22.582Z,101915.37
2019-05-13T17:00:57.320Z,101919.75
2019-05-13T17:02:32.397Z,101917.86
2019-05-13T17:04:06.766Z,101919.70
2019-05-13T17:05:42.080Z,101913.88
2019-05-13T17:07:16.542Z,101913.49
2019-05-13T17:08:51.749Z,101913.91
2019-05-13T17:10:26.511Z,101910.50
2019-05-13T17:12:01.588Z,101918.16
2019-05-13T17:13:36.322Z,101916.43
2019-05-13T17:15:11.528Z,101915.80
2019-05-13T17:16:45.960Z,101918.73
2019-05-13T17:18:21.981Z,101915.34
2019-05-13T17:19:56.553Z,101928.11
2019-05-13T17:21:31.735Z,101929.39
2019-05-13T17:23:06.633Z,101933.03
2019-05-13T17:24:42.775Z,101932.23
2019-05-13T17:26:17.765Z,101929.05
2019-05-13T17:27:53.545Z,101928.37
2019-05-13T17:29:28.384Z,101929.31
2019-05-13T17:31:03.921Z,101929.00
2019-05-13T17:32:38.717Z,101930.94
2019-05-13T17:34:14.508Z,101928.48
2019-05-13T17:35:49.335Z,101929.36
2019-05-13T17:37:24.874Z,101922.30
2019-05-13T17:39:01.800Z,101929.70
2019-05-13T17:40:36.913Z,101927.33
2019-05-13T17:42:12.368Z,101931.16
2019-05-13T17:43:48.086Z,101934.69
2019-05-13T17:45:23.024Z,101930.55
2019-05-13T17:46:58.608Z,101930.53
2019-05-13T17:48:33.421Z,101932.53
2019-05-13T17:50:08.444Z,101932.16
2019-05-13T17:51:42.927Z,101935.29
2019-05-13T17:53:17.903Z,101934.78
2019-05-13T17:54:52.551Z,101933.00
2019-05-13T17:56:27.787Z,101931.14
2019-05-13T17:58:02.505Z,101938.58
2019-05-13T17:59:37.737Z,101938.11
2019-05-13T18:01:12.196Z,101939.45
2019-05-13T18:02:47.191Z,101939.41
2019-05-13T18:04:22.591Z,101941.50
2019-05-13T18:05:57.827Z,101939.81
2019-05-13T18:07:32.250Z,101941.18
2019-05-13T18:09:08.236Z,101939.14
2019-05-13T18:10:42.608Z,101950.09
2019-05-13T18:12:17.563Z,101938.43
2019-05-13T18:13:52.035Z,101946.58
2019-05-13T18:15:27.304Z,101943.27
2019-05-13T18:17:02.316Z,101946.16
2019-05-13T18:18:43.978Z,101951.58
2019-05-13T18:20:14.456Z,101946.72